createdAt,value
2023-03-02T00:02:22.351Z,7.00
2023-03-02T00:05:10.738Z,7.60
2023-03-02T00:07:59.122Z,6.37
2023-03-02T00:10:45.668Z,7.47
2023-03-02T00:13:35.221Z,8.07
2023-03-02T00:16:23.132Z,10.25
2023-03-02T00:19:09.474Z,8.23
2023-03-02T00:21:56.262Z,7.30
2023-03-02T00:24:42.660Z,8.03
2023-03-02T00:27:30.033Z,7.47
2023-03-02T00:30:17.542Z,6.70
2023-03-02T00:33:05.399Z,6.97
2023-03-02T00:35:52.157Z,7.57
2023-03-02T00:38:38.568Z,6.88
2023-03-02T00:41:24.917Z,7.17
2023-03-02T00:44:17.419Z,7.53
2023-03-02T00:47:04.090Z,6.93
2023-03-02T00:49:51.750Z,6.60
2023-03-02T00:52:38.382Z,6.80
2023-03-02T00:55:24.854Z,6.30
2023-03-02T00:58:11.175Z,7.70
2023-03-02T01:00:57.850Z,7.33
2023-03-02T01:03:44.474Z,7.50
2023-03-02T01:06:32.877Z,7.10
2023-03-02T01:09:19.742Z,7.17
2023-03-02T01:12:09.326Z,6.93
2023-03-02T01:14:55.983Z,6.50
2023-03-02T01:17:43.862Z,6.80
2023-03-02T01:20:30.708Z,6.83
2023-03-02T01:23:18.785Z,6.63
2023-03-02T01:26:05.662Z,6.43
2023-03-02T01:28:55.317Z,6.97
2023-03-02T01:31:41.756Z,6.73
2023-03-02T01:34:28.149Z,7.20
2023-03-02T01:37:14.579Z,7.17
2023-03-02T01:40:06.734Z,7.00
2023-03-02T01:42:58.259Z,7.13
2023-03-02T01:45:54.183Z,6.13
2023-03-02T01:48:45.955Z,6.67
2023-03-02T01:51:36.354Z,6.47
2023-03-02T01:54:24.556Z,7.70
2023-03-02T01:57:13.126Z,6.50
2023-03-02T02:00:06.938Z,6.70
2023-03-02T02:02:54.812Z,6.83
2023-03-02T02:05:43.967Z,6.13
2023-03-02T02:08:30.531Z,6.57
2023-03-02T02:11:17.195Z,7.47
2023-03-02T02:14:05.371Z,6.90
2023-03-02T02:16:52.968Z,7.20
2023-03-02T02:19:54.631Z,6.67
2023-03-02T02:22:51.309Z,6.30
2023-03-02T02:25:46.489Z,6.50
2023-03-02T02:28:38.252Z,6.17
2023-03-02T02:31:29.105Z,7.13
2023-03-02T02:34:22.391Z,6.53
2023-03-02T02:37:14.936Z,8.30
2023-03-02T02:40:07.135Z,7.13
2023-03-02T02:42:54.963Z,7.17
2023-03-02T02:45:43.530Z,8.17
2023-03-02T02:48:31.999Z,7.17
2023-03-02T02:51:22.617Z,7.93
2023-03-02T02:54:16.077Z,7.57
2023-03-02T02:57:04.868Z,6.40
2023-03-02T02:59:55.316Z,6.80
2023-03-02T03:02:48.014Z,6.37
2023-03-02T03:05:34.807Z,6.90
2023-03-02T03:08:56.890Z,7.23
2023-03-02T03:11:47.520Z,7.43
2023-03-02T03:14:37.082Z,6.73
2023-03-02T03:17:23.851Z,7.03
2023-03-02T03:20:16.999Z,7.50
2023-03-02T03:23:03.613Z,7.43
2023-03-02T03:25:50.242Z,7.07
2023-03-02T03:28:37.157Z,7.33
2023-03-02T03:31:23.517Z,7.97
2023-03-02T03:34:10.737Z,7.30
2023-03-02T03:37:01.737Z,7.80
2023-03-02T03:39:48.396Z,7.30
2023-03-02T03:42:34.749Z,7.70
2023-03-02T03:45:21.306Z,7.67
2023-03-02T03:48:08.017Z,7.73
2023-03-02T03:50:54.926Z,7.57
2023-03-02T03:53:42.689Z,8.00
2023-03-02T03:56:30.998Z,7.60
2023-03-02T03:59:19.940Z,8.10
2023-03-02T04:02:06.370Z,8.10
2023-03-02T04:04:52.881Z,8.67
2023-03-02T04:07:40.665Z,8.17
2023-03-02T04:10:29.046Z,8.07
2023-03-02T04:13:16.134Z,8.23
2023-03-02T04:16:02.960Z,7.50
2023-03-02T04:18:49.264Z,7.97
2023-03-02T04:21:35.800Z,7.00
2023-03-02T04:24:24.011Z,6.77
2023-03-02T04:27:11.835Z,7.87
2023-03-02T04:29:58.187Z,7.57
2023-03-02T04:32:44.886Z,8.17
2023-03-02T04:35:31.691Z,8.07
2023-03-02T04:38:18.096Z,8.07
2023-03-02T04:41:04.596Z,8.47
2023-03-02T04:43:52.489Z,8.57
2023-03-02T04:46:39.906Z,8.80
2023-03-02T04:49:27.146Z,8.93
2023-03-02T04:52:14.021Z,11.67
2023-03-02T04:55:00.539Z,9.20
2023-03-02T04:57:46.958Z,9.87
2023-03-02T05:00:35.296Z,9.67
2023-03-02T05:03:21.619Z,8.57
2023-03-02T05:06:08.652Z,8.87
2023-03-02T05:08:55.300Z,8.90
2023-03-02T05:11:42.381Z,8.63
2023-03-02T05:14:30.009Z,8.70
2023-03-02T05:17:17.935Z,7.30
2023-03-02T05:20:07.157Z,8.27
2023-03-02T05:22:54.162Z,9.03
2023-03-02T05:25:40.840Z,8.20
2023-03-02T05:28:28.506Z,8.80
2023-03-02T05:31:20.002Z,9.33
2023-03-02T05:34:10.563Z,8.20
2023-03-02T05:36:58.160Z,7.87
2023-03-02T05:39:44.711Z,7.90
2023-03-02T05:42:31.213Z,8.57
2023-03-02T05:45:21.416Z,8.33
2023-03-02T05:48:08.527Z,9.90
2023-03-02T05:50:56.800Z,9.23
2023-03-02T05:53:43.136Z,9.63
2023-03-02T05:56:29.393Z,8.93
2023-03-02T05:59:15.791Z,8.10
2023-03-02T06:02:02.609Z,8.90
2023-03-02T06:04:49.161Z,8.90
2023-03-02T06:07:37.090Z,8.60
2023-03-02T06:10:24.028Z,8.60
2023-03-02T06:13:10.326Z,8.40
2023-03-02T06:15:56.925Z,9.57
2023-03-02T06:18:43.712Z,9.40
2023-03-02T06:21:30.129Z,9.53
2023-03-02T06:24:17.805Z,8.87
2023-03-02T06:27:04.273Z,8.67
2023-03-02T06:29:50.799Z,8.77
2023-03-02T06:32:37.187Z,10.10
2023-03-02T06:35:24.869Z,9.57
2023-03-02T06:38:11.662Z,10.33
2023-03-02T06:40:59.475Z,8.90
2023-03-02T06:43:46.588Z,9.70
2023-03-02T06:46:33.400Z,9.37
2023-03-02T06:49:19.862Z,9.40
2023-03-02T06:52:07.250Z,11.97
2023-03-02T06:54:53.999Z,10.47
2023-03-02T06:57:41.824Z,10.63
2023-03-02T07:00:29.188Z,9.90
2023-03-02T07:03:15.762Z,10.27
2023-03-02T07:06:02.330Z,9.67
2023-03-02T07:08:48.977Z,12.00
2023-03-02T07:11:36.006Z,10.87
2023-03-02T07:14:23.855Z,10.27
2023-03-02T07:17:10.398Z,9.83
2023-03-02T07:19:56.724Z,9.17
2023-03-02T07:22:43.969Z,9.43
2023-03-02T07:25:30.690Z,10.60
2023-03-02T07:28:17.086Z,10.17
2023-03-02T07:31:04.873Z,10.93
2023-03-02T07:33:51.083Z,10.20
2023-03-02T07:36:37.482Z,10.37
2023-03-02T07:39:23.756Z,11.87
2023-03-02T07:42:11.736Z,11.23
2023-03-02T07:44:58.116Z,11.40
2023-03-02T07:47:45.902Z,11.50
2023-03-02T07:50:32.510Z,11.17
2023-03-02T07:53:19.029Z,11.40
2023-03-02T07:56:10.176Z,11.80
2023-03-02T07:58:56.574Z,11.63
2023-03-02T08:01:42.795Z,10.60
2023-03-02T08:04:30.526Z,11.73
2023-03-02T08:07:17.218Z,10.87
2023-03-02T08:10:04.169Z,11.23
2023-03-02T08:12:50.635Z,11.47
2023-03-02T08:15:37.054Z,9.47
2023-03-02T08:18:23.407Z,8.57
2023-03-02T08:21:15.331Z,9.63
2023-03-02T08:24:01.917Z,9.67
2023-03-02T08:26:48.417Z,9.83
2023-03-02T08:29:34.753Z,10.57
2023-03-02T08:32:21.340Z,11.73
2023-03-02T08:35:09.529Z,9.77
2023-03-02T08:37:59.590Z,11.47
2023-03-02T08:40:45.839Z,10.67
2023-03-02T08:43:32.356Z,10.33
2023-03-02T08:46:21.290Z,10.10
2023-03-02T08:49:07.602Z,10.87
2023-03-02T08:51:56.282Z,10.83
2023-03-02T08:54:44.373Z,10.87
2023-03-02T08:57:30.820Z,9.93
2023-03-02T09:00:18.640Z,11.17
2023-03-02T09:03:05.061Z,10.07
2023-03-02T09:05:51.543Z,11.40
2023-03-02T09:08:38.039Z,11.97
2023-03-02T09:11:26.229Z,10.47
2023-03-02T09:14:13.010Z,10.73
2023-03-02T09:17:00.406Z,10.40
2023-03-02T09:19:47.137Z,10.30
2023-03-02T09:22:35.809Z,11.47
2023-03-02T09:25:22.325Z,9.77
2023-03-02T09:28:10.048Z,9.83
2023-03-02T09:30:59.823Z,10.60
2023-03-02T09:33:46.467Z,10.70
2023-03-02T09:36:32.871Z,10.33
2023-03-02T09:39:19.499Z,11.67
2023-03-02T09:42:25.457Z,10.83
2023-03-02T09:45:31.031Z,11.00
2023-03-02T09:48:25.657Z,9.90
2023-03-02T09:51:24.146Z,10.60
2023-03-02T09:54:12.435Z,16.43
2023-03-02T09:57:00.498Z,9.97
2023-03-02T09:59:52.813Z,10.70
2023-03-02T10:02:47.543Z,10.43
2023-03-02T10:05:40.338Z,10.23
2023-03-02T10:08:29.954Z,9.83
2023-03-02T10:11:23.511Z,10.27
2023-03-02T10:14:16.202Z,10.43
2023-03-02T10:17:20.582Z,9.40
2023-03-02T10:20:18.040Z,9.27
2023-03-02T10:23:18.455Z,10.50
2023-03-02T10:26:15.621Z,9.03
2023-03-02T10:29:11.653Z,9.33
2023-03-02T10:32:01.917Z,9.00
2023-03-02T10:34:49.984Z,9.37
2023-03-02T10:37:37.535Z,10.63
2023-03-02T10:40:38.944Z,9.47
2023-03-02T10:43:31.711Z,8.93
2023-03-02T10:46:18.161Z,8.90
2023-03-02T10:49:04.493Z,10.30
2023-03-02T10:51:57.675Z,9.70
2023-03-02T10:54:47.356Z,9.50
2023-03-02T10:57:38.038Z,9.60
2023-03-02T11:00:25.915Z,9.80
2023-03-02T11:03:23.128Z,9.33
2023-03-02T11:06:19.707Z,8.80
2023-03-02T11:09:08.302Z,8.97
2023-03-02T11:11:58.908Z,9.47
2023-03-02T11:14:45.597Z,9.13
2023-03-02T11:17:35.153Z,9.47
2023-03-02T11:20:26.276Z,9.80
2023-03-02T11:23:20.636Z,11.83
2023-03-02T11:26:12.370Z,8.97
2023-03-02T11:29:05.498Z,10.07
2023-03-02T11:31:55.520Z,9.80
2023-03-02T11:34:48.259Z,8.83
2023-03-02T11:37:40.799Z,8.87
2023-03-02T11:40:32.620Z,9.53
2023-03-02T11:43:19.237Z,8.67
2023-03-02T11:46:21.540Z,8.70
2023-03-02T11:49:16.325Z,8.90
2023-03-02T11:52:03.319Z,9.27
2023-03-02T11:54:54.770Z,9.90
2023-03-02T11:57:48.553Z,9.97
2023-03-02T12:00:37.602Z,9.60
2023-03-02T12:03:39.338Z,21.30
2023-03-02T12:06:35.433Z,10.47
2023-03-02T12:09:35.601Z,10.50
2023-03-02T12:12:41.847Z,9.37
2023-03-02T12:15:39.489Z,10.13
2023-03-02T12:18:48.841Z,10.30
2023-03-02T12:21:41.896Z,9.73
2023-03-02T12:24:30.561Z,11.00
2023-03-02T12:27:28.492Z,10.17
2023-03-02T12:30:28.600Z,9.63
2023-03-02T12:33:21.426Z,10.30
2023-03-02T12:36:15.659Z,10.40
2023-03-02T12:39:19.747Z,10.20
2023-03-02T12:42:33.128Z,10.77
2023-03-02T12:45:35.957Z,10.57
2023-03-02T12:48:28.478Z,10.43
2023-03-02T12:51:21.479Z,11.13
2023-03-02T12:54:14.821Z,9.57
2023-03-02T12:57:08.897Z,9.63
2023-03-02T12:59:58.037Z,9.80
2023-03-02T13:02:48.164Z,11.43
2023-03-02T13:05:36.398Z,11.90
2023-03-02T13:08:29.173Z,11.47
2023-03-02T13:11:23.597Z,11.60
2023-03-02T13:14:21.654Z,12.33
2023-03-02T13:17:21.037Z,11.33
2023-03-02T13:20:08.393Z,14.03
2023-03-02T13:22:55.616Z,12.07
2023-03-02T13:25:51.748Z,13.53
2023-03-02T13:28:40.000Z,12.90
2023-03-02T13:31:26.548Z,12.97
2023-03-02T13:34:22.653Z,12.73
2023-03-02T13:37:24.254Z,13.77
2023-03-02T13:40:32.210Z,14.10
2023-03-02T13:43:37.223Z,14.03
2023-03-02T13:46:29.824Z,13.53
2023-03-02T13:49:27.725Z,13.77
2023-03-02T13:52:19.664Z,15.33
2023-03-02T13:55:07.507Z,15.00
2023-03-02T13:57:55.345Z,15.23
2023-03-02T14:00:43.516Z,15.67
2023-03-02T14:03:31.935Z,15.60
2023-03-02T14:06:18.958Z,17.73
2023-03-02T14:09:05.791Z,17.53
2023-03-02T14:11:56.025Z,17.10
2023-03-02T14:14:44.483Z,17.20
2023-03-02T14:17:33.105Z,17.60
2023-03-02T14:20:21.352Z,17.67
2023-03-02T14:23:09.461Z,16.83
2023-03-02T14:25:57.429Z,17.90
2023-03-02T14:28:44.797Z,18.50
2023-03-02T14:31:31.848Z,18.83
2023-03-02T14:34:20.120Z,17.90
2023-03-02T14:37:08.782Z,18.40
2023-03-02T14:39:55.837Z,18.30
2023-03-02T14:42:42.184Z,18.37
2023-03-02T14:45:30.787Z,18.93
2023-03-02T14:48:17.644Z,17.40
2023-03-02T14:51:05.694Z,19.13
2023-03-02T14:53:53.863Z,19.13
2023-03-02T14:56:40.476Z,19.50
2023-03-02T14:59:26.915Z,19.67
2023-03-02T15:02:24.786Z,20.23
2023-03-02T15:05:12.519Z,19.20
2023-03-02T15:08:00.218Z,18.33
2023-03-02T15:10:47.786Z,20.53
2023-03-02T15:13:34.301Z,19.00
2023-03-02T15:16:21.163Z,20.30
2023-03-02T15:19:07.751Z,21.90
2023-03-02T15:21:54.439Z,20.27
2023-03-02T15:24:42.347Z,25.30
2023-03-02T15:27:28.798Z,23.23
2023-03-02T15:30:15.183Z,21.40
2023-03-02T15:33:01.797Z,20.03
2023-03-02T15:35:55.249Z,19.80
2023-03-02T15:38:41.778Z,20.07
2023-03-02T15:41:29.642Z,20.43
2023-03-02T15:44:21.673Z,20.97
2023-03-02T15:47:08.680Z,20.63
2023-03-02T15:49:55.006Z,21.43
2023-03-02T15:52:41.914Z,20.30
2023-03-02T15:55:28.357Z,19.97
2023-03-02T15:58:17.696Z,18.97
2023-03-02T16:01:08.809Z,20.63
2023-03-02T16:03:55.529Z,21.70
2023-03-02T16:06:42.100Z,22.60
2023-03-02T16:09:30.932Z,23.00
2023-03-02T16:12:17.830Z,24.53
2023-03-02T16:15:06.739Z,19.10
2023-03-02T16:17:53.398Z,19.67
2023-03-02T16:20:40.396Z,22.27
2023-03-02T16:23:26.673Z,22.00
2023-03-02T16:26:16.450Z,21.97
2023-03-02T16:29:03.325Z,21.70
2023-03-02T16:31:51.321Z,23.13
2023-03-02T16:34:37.971Z,22.77
2023-03-02T16:37:24.630Z,24.20
2023-03-02T16:40:12.923Z,22.67
2023-03-02T16:42:59.648Z,23.03
2023-03-02T16:45:47.620Z,23.40
2023-03-02T16:48:35.478Z,22.30
2023-03-02T16:51:22.635Z,25.97
2023-03-02T16:54:09.115Z,22.80
2023-03-02T16:56:55.644Z,21.17
2023-03-02T16:59:42.021Z,21.87
2023-03-02T17:02:29.246Z,23.83
2023-03-02T17:05:18.574Z,24.13
2023-03-02T17:08:10.001Z,25.00
2023-03-02T17:10:56.772Z,25.83
2023-03-02T17:13:43.370Z,26.27
2023-03-02T17:16:30.134Z,27.60
2023-03-02T17:19:17.757Z,25.60
2023-03-02T17:22:08.457Z,25.73
2023-03-02T17:24:54.756Z,26.23
2023-03-02T17:27:41.263Z,27.10
2023-03-02T17:30:27.745Z,24.97
2023-03-02T17:33:14.479Z,26.30
2023-03-02T17:36:06.181Z,26.00
2023-03-02T17:38:54.397Z,28.30
2023-03-02T17:41:40.944Z,26.83
2023-03-02T17:44:27.500Z,28.10
2023-03-02T17:47:16.218Z,26.57
2023-03-02T17:50:04.558Z,28.80
2023-03-02T17:52:51.051Z,26.20
2023-03-02T17:55:39.434Z,27.17
2023-03-02T17:58:28.545Z,26.20
2023-03-02T18:01:22.905Z,28.10
2023-03-02T18:04:09.257Z,26.77
2023-03-02T18:06:55.795Z,28.50
2023-03-02T18:09:42.479Z,26.90
2023-03-02T18:12:30.394Z,27.23
2023-03-02T18:15:17.287Z,27.40
2023-03-02T18:18:03.769Z,27.07
2023-03-02T18:20:50.444Z,28.30
2023-03-02T18:23:37.279Z,25.23
2023-03-02T18:26:23.680Z,28.50
2023-03-02T18:29:11.797Z,27.40
2023-03-02T18:31:58.274Z,29.03
2023-03-02T18:34:44.580Z,28.37
2023-03-02T18:37:33.882Z,27.23
2023-03-02T18:40:20.485Z,28.87
2023-03-02T18:43:07.112Z,29.53
2023-03-02T18:45:56.773Z,26.37
2023-03-02T18:48:43.124Z,26.57
2023-03-02T18:51:29.587Z,24.70
2023-03-02T18:54:16.439Z,24.23
2023-03-02T18:57:03.536Z,25.87
2023-03-02T18:59:49.931Z,24.73
2023-03-02T19:02:37.626Z,24.97
2023-03-02T19:05:25.132Z,25.57
2023-03-02T19:08:11.723Z,23.90
2023-03-02T19:10:59.040Z,25.93
2023-03-02T19:13:45.627Z,24.20
2023-03-02T19:16:32.222Z,22.20
2023-03-02T19:19:19.930Z,22.33
2023-03-02T19:22:07.232Z,24.27
2023-03-02T19:24:53.759Z,24.90
2023-03-02T19:27:40.228Z,23.43
2023-03-02T19:30:27.809Z,24.90
2023-03-02T19:33:14.460Z,22.30
2023-03-02T19:36:02.377Z,22.17
2023-03-02T19:38:48.948Z,22.60
2023-03-02T19:41:35.709Z,21.00
2023-03-02T19:44:22.436Z,21.53
2023-03-02T19:47:08.694Z,21.60
2023-03-02T19:49:55.068Z,20.47
2023-03-02T19:52:43.000Z,20.57
2023-03-02T19:55:29.621Z,21.80
2023-03-02T19:58:17.557Z,20.23
2023-03-02T20:01:04.849Z,19.30
2023-03-02T20:03:52.512Z,18.17
2023-03-02T20:06:38.992Z,18.30
2023-03-02T20:09:27.767Z,17.73
2023-03-02T20:12:14.389Z,17.53
2023-03-02T20:15:00.734Z,17.23
2023-03-02T20:17:47.158Z,17.57
2023-03-02T20:20:33.477Z,17.23
2023-03-02T20:23:20.134Z,17.10
2023-03-02T20:26:08.563Z,17.60
2023-03-02T20:28:56.524Z,17.30
2023-03-02T20:31:43.196Z,22.77
2023-03-02T20:34:30.129Z,19.47
2023-03-02T20:37:16.819Z,19.67
2023-03-02T20:40:04.256Z,20.00
2023-03-02T20:42:53.139Z,19.43
2023-03-02T20:45:40.032Z,17.17
2023-03-02T20:48:26.333Z,16.03
2023-03-02T20:51:14.896Z,17.53
2023-03-02T20:54:01.367Z,16.00
2023-03-02T20:56:48.012Z,16.57
2023-03-02T20:59:36.357Z,15.13
2023-03-02T21:02:23.290Z,16.27
2023-03-02T21:05:10.795Z,16.73
2023-03-02T21:07:57.872Z,16.87
2023-03-02T21:10:44.691Z,16.87
2023-03-02T21:13:31.680Z,15.83
2023-03-02T21:16:23.845Z,15.83
2023-03-02T21:19:15.140Z,17.40
2023-03-02T21:22:02.029Z,18.17
2023-03-02T21:24:48.921Z,16.47
2023-03-02T21:27:35.397Z,18.20
2023-03-02T21:30:24.167Z,17.40
2023-03-02T21:33:11.810Z,14.60
2023-03-02T21:35:58.918Z,14.43
2023-03-02T21:38:45.407Z,13.97
2023-03-02T21:41:32.185Z,13.70
2023-03-02T21:44:19.122Z,14.20
2023-03-02T21:47:06.023Z,14.03
2023-03-02T21:49:54.040Z,13.80
2023-03-02T21:52:40.904Z,13.00
2023-03-02T21:55:27.565Z,13.30
2023-03-02T21:58:14.373Z,13.27
2023-03-02T22:01:00.837Z,13.90
2023-03-02T22:03:47.321Z,13.27
2023-03-02T22:06:37.550Z,13.73
2023-03-02T22:09:25.909Z,15.30
2023-03-02T22:12:14.532Z,13.43
2023-03-02T22:15:04.186Z,14.53
2023-03-02T22:17:52.336Z,15.60
2023-03-02T22:20:40.124Z,16.30
2023-03-02T22:23:28.538Z,15.30
2023-03-02T22:26:17.537Z,14.33
2023-03-02T22:29:13.518Z,13.37
2023-03-02T22:32:16.453Z,13.90
2023-03-02T22:35:14.869Z,13.80
2023-03-02T22:38:09.886Z,13.67
2023-03-02T22:40:58.478Z,12.77
2023-03-02T22:43:45.807Z,12.73
2023-03-02T22:46:32.384Z,11.20
2023-03-02T22:49:18.980Z,12.17
2023-03-02T22:52:14.007Z,12.73
2023-03-02T22:55:00.506Z,13.40
2023-03-02T22:57:48.228Z,13.07
2023-03-02T23:00:38.390Z,12.37
2023-03-02T23:03:29.044Z,11.43
2023-03-02T23:06:28.290Z,11.53
2023-03-02T23:09:16.832Z,11.17
2023-03-02T23:12:13.431Z,11.27
2023-03-02T23:15:01.686Z,12.73
2023-03-02T23:17:48.345Z,12.30
2023-03-02T23:20:35.124Z,11.07
2023-03-02T23:23:25.153Z,10.87
2023-03-02T23:26:13.603Z,10.30
2023-03-02T23:29:00.276Z,10.37
2023-03-02T23:31:48.485Z,10.43
2023-03-02T23:34:34.910Z,12.10
2023-03-02T23:37:21.197Z,10.17
2023-03-02T23:40:09.114Z,10.07
2023-03-02T23:42:56.248Z,10.57
2023-03-02T23:45:42.903Z,11.10
2023-03-02T23:48:30.483Z,12.07
2023-03-02T23:51:17.351Z,10.47
2023-03-02T23:54:04.807Z,9.97
2023-03-02T23:56:51.314Z,11.60
2023-03-02T23:59:37.873Z,10.30
